createdAt,value
2023-03-24T10:22:02.659Z,2.35
2023-03-24T10:27:15.564Z,2.40
2023-03-24T10:32:22.437Z,2.97
2023-03-24T10:37:27.984Z,2.22
2023-03-24T10:42:34.463Z,2.00
2023-03-24T10:47:37.415Z,2.00
2023-03-24T10:52:43.108Z,2.20
2023-03-24T10:57:47.492Z,1.77
2023-03-24T11:02:57.317Z,1.48
2023-03-24T11:08:19.688Z,2.33
2023-03-24T11:13:30.071Z,1.70
2023-03-24T11:18:33.254Z,1.98
2023-03-24T11:23:40.722Z,2.20
2023-03-24T11:28:47.058Z,2.00
2023-03-24T11:33:56.624Z,1.98
2023-03-24T11:39:03.219Z,2.25
2023-03-24T11:44:18.089Z,1.85
2023-03-24T11:49:23.829Z,1.80
2023-03-24T11:54:33.020Z,2.00
2023-03-24T11:59:41.304Z,1.90
2023-03-24T12:04:57.664Z,1.63
2023-03-24T12:10:15.640Z,2.17
2023-03-24T12:15:31.652Z,2.72
2023-03-24T12:20:40.305Z,2.83
2023-03-24T12:25:56.206Z,2.55
2023-03-24T12:31:11.392Z,2.38
2023-03-24T12:36:31.887Z,2.30
2023-03-24T12:41:49.489Z,2.72
2023-03-24T12:47:04.315Z,1.65
2023-03-24T12:52:21.167Z,1.70
2023-03-24T12:57:28.282Z,2.30
2023-03-24T13:02:37.669Z,1.98
2023-03-24T13:07:47.331Z,1.80
2023-03-24T13:12:56.112Z,1.50
2023-03-24T13:18:08.924Z,1.10
2023-03-24T13:23:28.529Z,0.80
2023-03-24T13:28:41.649Z,1.48
2023-03-24T13:33:45.571Z,1.30
2023-03-24T13:38:52.209Z,1.02
2023-03-24T13:44:02.331Z,1.35
2023-03-24T13:49:07.834Z,1.40
2023-03-24T13:54:15.750Z,1.50
2023-03-24T13:59:29.827Z,2.70
2023-03-24T14:04:46.350Z,2.30
2023-03-24T14:09:59.584Z,2.40
2023-03-24T14:15:18.594Z,2.75
2023-03-24T14:20:36.081Z,2.30
2023-03-24T14:25:38.770Z,2.95
2023-03-24T14:31:02.064Z,2.83
2023-03-24T14:36:12.081Z,2.70
2023-03-24T14:41:17.084Z,2.22
2023-03-24T14:46:38.271Z,2.40
2023-03-24T14:51:44.534Z,2.72
2023-03-24T14:56:52.752Z,3.08
2023-03-24T15:02:02.375Z,2.95
2023-03-24T15:07:05.659Z,2.25
2023-03-24T15:12:08.293Z,2.58
2023-03-24T15:17:22.601Z,2.27
2023-03-24T15:22:25.356Z,2.20
2023-03-24T15:27:31.671Z,2.30
2023-03-24T15:32:38.844Z,1.83
2023-03-24T15:37:49.075Z,1.10
2023-03-24T15:42:51.682Z,1.50
2023-03-24T15:47:57.171Z,1.40
2023-03-24T15:53:01.890Z,1.52
2023-03-24T15:58:22.671Z,1.20
2023-03-24T16:03:27.716Z,1.23
2023-03-24T16:08:36.029Z,1.60
2023-03-24T16:13:39.429Z,1.10
2023-03-24T16:18:44.831Z,1.33
2023-03-24T16:23:48.261Z,1.38
2023-03-24T16:28:52.142Z,2.03
2023-03-24T16:33:58.075Z,1.55
2023-03-24T16:39:01.657Z,2.20
2023-03-24T16:44:04.623Z,2.10
2023-03-24T16:49:12.527Z,1.50
2023-03-24T16:54:15.552Z,1.52
2023-03-24T16:59:19.666Z,1.50
2023-03-24T17:04:26.155Z,2.08
2023-03-24T17:09:30.694Z,1.58
2023-03-24T17:14:33.348Z,1.50
2023-03-24T17:19:38.276Z,1.87
2023-03-24T17:24:42.232Z,1.98
2023-03-24T17:29:44.761Z,1.83
2023-03-24T17:34:48.970Z,2.60
2023-03-24T17:39:51.565Z,2.40
2023-03-24T17:44:54.307Z,2.60
2023-03-24T17:49:58.191Z,2.63
2023-03-24T17:55:00.710Z,2.25
2023-03-24T18:00:06.479Z,2.77
2023-03-24T18:05:12.310Z,2.25
2023-03-24T18:10:15.191Z,2.40
2023-03-24T18:15:17.798Z,3.05
2023-03-24T18:20:21.809Z,2.13
2023-03-24T18:25:24.462Z,4.45
2023-03-24T18:30:27.020Z,3.77
2023-03-24T18:35:31.452Z,4.20
2023-03-24T18:40:34.120Z,5.22
2023-03-24T18:45:36.722Z,3.60
2023-03-24T18:50:41.432Z,5.03
2023-03-24T18:55:46.454Z,6.30
2023-03-24T19:00:50.769Z,4.80
2023-03-24T19:05:54.716Z,4.43
2023-03-24T19:10:57.362Z,4.55
2023-03-24T19:16:00.296Z,5.83
2023-03-24T19:21:04.901Z,6.53
2023-03-24T19:26:07.504Z,5.07
2023-03-24T19:31:14.967Z,3.97
2023-03-24T19:36:19.838Z,3.30
2023-03-24T19:41:26.201Z,2.70
2023-03-24T19:46:28.855Z,2.38
2023-03-24T19:51:32.798Z,3.10
2023-03-24T19:56:35.471Z,2.80
2023-03-24T20:01:38.104Z,2.13
2023-03-24T20:06:43.706Z,1.90
2023-03-24T20:11:47.581Z,2.03
2023-03-24T20:16:50.238Z,1.98
2023-03-24T20:21:54.699Z,2.33
2023-03-24T20:26:57.316Z,3.25
2023-03-24T20:31:59.965Z,3.30
2023-03-24T20:37:03.904Z,2.70
2023-03-24T20:42:06.602Z,3.95
2023-03-24T20:47:09.210Z,2.20
2023-03-24T20:52:14.316Z,2.83
2023-03-24T20:57:17.701Z,2.70
2023-03-24T21:02:20.442Z,2.45
2023-03-24T21:07:24.444Z,3.27
2023-03-24T21:12:26.992Z,2.38
2023-03-24T21:17:32.310Z,2.60
2023-03-24T21:22:47.493Z,2.97
2023-03-24T21:27:50.369Z,2.50
2023-03-24T21:32:54.883Z,2.40
2023-03-24T21:37:58.930Z,3.20
2023-03-24T21:43:05.149Z,3.05
2023-03-24T21:48:08.119Z,3.22
2023-03-24T21:53:14.982Z,3.53
2023-03-24T21:58:17.773Z,4.20
2023-03-24T22:03:21.820Z,4.27
2023-03-24T22:08:30.436Z,3.20
2023-03-24T22:13:34.474Z,2.75
2023-03-24T22:18:37.099Z,2.70
2023-03-24T22:23:42.625Z,2.80
2023-03-24T22:28:45.653Z,2.50
2023-03-24T22:33:49.666Z,2.10
2023-03-24T22:38:53.583Z,2.65
2023-03-24T22:43:56.172Z,2.40
2023-03-24T22:48:58.766Z,2.23
2023-03-24T22:54:04.179Z,1.93
2023-03-24T22:59:06.719Z,2.08
2023-03-24T23:04:09.344Z,3.33
2023-03-24T23:09:14.469Z,2.77
2023-03-24T23:14:18.308Z,3.03
2023-03-24T23:19:20.909Z,2.80
2023-03-24T23:24:24.792Z,2.37
2023-03-24T23:29:27.683Z,2.53
2023-03-24T23:34:30.266Z,2.20
2023-03-24T23:39:36.597Z,2.80
2023-03-24T23:44:39.360Z,2.40
2023-03-24T23:49:43.278Z,2.63
2023-03-24T23:54:47.221Z,2.28
2023-03-24T23:59:53.030Z,2.15
